createdAt,value
2022-08-22T00:01:07.801Z,24.21
2022-08-22T00:06:42.547Z,22.25
2022-08-22T00:12:22.473Z,22.54
2022-08-22T00:17:55.199Z,24.45
2022-08-22T00:23:27.370Z,25.19
2022-08-22T00:28:37.034Z,24.17
2022-08-22T00:33:51.304Z,22.25
2022-08-22T00:39:06.396Z,22.33
2022-08-22T00:44:21.323Z,24.14
2022-08-22T00:49:44.491Z,24.31
2022-08-22T00:55:23.976Z,22.34
2022-08-22T01:00:36.665Z,22.40
2022-08-22T01:06:07.512Z,24.03
2022-08-22T01:11:35.135Z,24.06
2022-08-22T01:16:51.710Z,22.02
2022-08-22T01:22:06.430Z,22.02
2022-08-22T01:27:31.418Z,23.84
2022-08-22T01:33:20.835Z,24.56
2022-08-22T01:38:41.638Z,23.76
2022-08-22T01:44:16.673Z,21.82
2022-08-22T01:49:35.774Z,22.02
2022-08-22T01:54:56.039Z,23.93
2022-08-22T02:00:07.356Z,23.82
2022-08-22T02:05:17.053Z,21.89
2022-08-22T02:10:26.467Z,22.05
2022-08-22T02:15:41.267Z,24.07
2022-08-22T02:20:52.835Z,23.98
2022-08-22T02:26:13.111Z,22.07
2022-08-22T02:31:25.734Z,22.21
2022-08-22T02:36:44.364Z,24.13
2022-08-22T02:41:56.461Z,23.96
2022-08-22T02:47:11.529Z,22.00
2022-08-22T02:52:33.261Z,22.08
2022-08-22T02:58:04.824Z,24.04
2022-08-22T03:03:16.768Z,24.83
2022-08-22T03:08:33.179Z,23.85
2022-08-22T03:13:49.709Z,21.96
2022-08-22T03:19:31.747Z,22.12
2022-08-22T03:25:18.996Z,24.15
2022-08-22T03:30:34.082Z,24.86
2022-08-22T03:35:49.668Z,23.92
2022-08-22T03:41:24.074Z,22.01
2022-08-22T03:46:51.170Z,23.34
2022-08-22T03:52:11.947Z,24.49
2022-08-22T03:57:36.404Z,24.09
2022-08-22T04:03:00.429Z,22.13
2022-08-22T04:08:25.959Z,22.25
2022-08-22T04:13:28.992Z,24.13
2022-08-22T04:19:08.868Z,24.63
2022-08-22T04:24:40.737Z,24.13
2022-08-22T04:29:46.472Z,22.16
2022-08-22T04:34:56.034Z,22.23
2022-08-22T04:39:58.660Z,24.08
2022-08-22T04:45:37.483Z,24.89
2022-08-22T04:50:49.698Z,23.89
2022-08-22T04:55:55.035Z,22.15
2022-08-22T05:01:09.691Z,22.41
2022-08-22T05:06:15.942Z,24.39
2022-08-22T05:11:20.045Z,25.09
2022-08-22T05:16:30.435Z,23.75
2022-08-22T05:21:37.626Z,22.15
2022-08-22T05:26:50.909Z,22.45
2022-08-22T05:32:02.681Z,24.46
2022-08-22T05:37:05.307Z,25.24
2022-08-22T05:42:16.072Z,24.69
2022-08-22T05:47:36.783Z,22.80
2022-08-22T05:53:12.984Z,22.96
2022-08-22T05:58:56.179Z,24.80
2022-08-22T06:04:13.748Z,25.54
2022-08-22T06:09:35.422Z,25.07
2022-08-22T06:15:02.699Z,23.15
2022-08-22T06:20:21.755Z,23.33
2022-08-22T06:25:36.412Z,25.08
2022-08-22T06:30:40.094Z,25.82
2022-08-22T06:36:28.531Z,25.00
2022-08-22T06:41:35.826Z,23.03
2022-08-22T06:46:39.338Z,23.18
2022-08-22T06:51:43.923Z,25.03
2022-08-22T06:56:50.070Z,25.82
2022-08-22T07:02:04.397Z,25.45
2022-08-22T07:07:07.329Z,23.51
2022-08-22T07:12:20.212Z,23.53
2022-08-22T07:17:30.029Z,25.37
2022-08-22T07:22:37.488Z,26.16
2022-08-22T07:27:49.257Z,25.75
2022-08-22T07:32:51.866Z,23.85
2022-08-22T07:37:58.959Z,23.89
2022-08-22T07:43:20.039Z,25.73
2022-08-22T07:49:08.284Z,26.60
2022-08-22T07:54:17.131Z,25.80
2022-08-22T07:59:22.274Z,24.02
2022-08-22T08:04:30.194Z,24.15
2022-08-22T08:09:38.456Z,26.00
2022-08-22T08:14:44.520Z,26.77
2022-08-22T08:19:47.434Z,25.98
2022-08-22T08:24:54.133Z,24.28
2022-08-22T08:30:02.459Z,24.46
2022-08-22T08:35:19.200Z,26.33
2022-08-22T08:40:30.798Z,26.96
2022-08-22T08:45:48.230Z,25.48
2022-08-22T08:51:16.188Z,25.51
2022-08-22T08:56:38.080Z,27.29
2022-08-22T09:01:53.388Z,27.18
2022-08-22T09:07:07.202Z,25.67
2022-08-22T09:12:56.390Z,25.88
2022-08-22T09:18:18.647Z,27.48
2022-08-22T09:24:07.036Z,26.28
2022-08-22T09:29:57.022Z,26.72
2022-08-22T09:35:23.116Z,27.57
2022-08-22T09:40:45.832Z,25.99
2022-08-22T09:45:52.415Z,26.69
2022-08-22T09:51:33.152Z,27.05
2022-08-22T09:56:39.600Z,25.14
2022-08-22T10:01:48.334Z,25.28
2022-08-22T10:07:01.748Z,27.20
2022-08-22T10:12:12.759Z,27.18
2022-08-22T10:17:24.070Z,25.62
2022-08-22T10:22:40.601Z,26.72
2022-08-22T10:27:43.217Z,27.35
2022-08-22T10:33:29.392Z,25.86
2022-08-22T10:38:53.997Z,26.24
2022-08-22T10:44:01.183Z,27.19
2022-08-22T10:49:28.279Z,25.80
2022-08-22T10:54:42.988Z,26.20
2022-08-22T11:00:11.868Z,27.82
2022-08-22T11:05:29.989Z,26.69
2022-08-22T11:11:04.653Z,25.67
2022-08-22T11:16:16.421Z,26.49
2022-08-22T11:21:48.740Z,27.97
2022-08-22T11:27:17.634Z,27.01
2022-08-22T11:32:29.518Z,26.42
2022-08-22T11:37:45.028Z,27.05
2022-08-22T11:42:53.400Z,28.25
2022-08-22T11:48:10.941Z,27.03
2022-08-22T11:53:27.291Z,26.27
2022-08-22T11:58:52.428Z,27.09
2022-08-22T12:04:09.882Z,28.46
2022-08-22T12:09:23.088Z,27.36
2022-08-22T12:15:01.210Z,26.68
2022-08-22T12:20:17.210Z,26.26
2022-08-22T12:25:44.514Z,27.49
2022-08-22T12:31:17.016Z,28.85
2022-08-22T12:36:35.178Z,27.79
2022-08-22T12:41:56.530Z,27.07
2022-08-22T12:47:32.020Z,26.51
2022-08-22T12:52:38.046Z,26.34
2022-08-22T12:58:02.100Z,28.48
2022-08-22T13:03:23.225Z,28.67
2022-08-22T13:08:41.228Z,27.36
2022-08-22T13:13:56.196Z,26.84
2022-08-22T13:19:13.659Z,26.72
2022-08-22T13:24:38.805Z,26.72
2022-08-22T13:29:57.073Z,26.70
2022-08-22T13:35:01.591Z,26.67
2022-08-22T13:40:10.200Z,26.59
2022-08-22T13:45:26.013Z,26.41
2022-08-22T13:50:37.524Z,26.33
2022-08-22T13:56:05.815Z,26.56
2022-08-22T14:01:11.625Z,26.94
2022-08-22T14:06:36.835Z,27.17
2022-08-22T14:11:40.923Z,27.20
2022-08-22T14:16:54.061Z,27.16
2022-08-22T14:22:22.045Z,27.01
2022-08-22T14:27:34.934Z,26.75
2022-08-22T14:32:42.482Z,26.50
2022-08-22T14:37:52.196Z,26.19
2022-08-22T14:43:06.431Z,25.92
2022-08-22T14:48:31.723Z,25.75
2022-08-22T14:53:38.987Z,26.90
2022-08-22T14:59:02.938Z,28.34
2022-08-22T15:04:11.379Z,27.18
2022-08-22T15:09:36.821Z,26.49
2022-08-22T15:14:52.443Z,26.00
2022-08-22T15:20:22.775Z,26.02
2022-08-22T15:25:36.979Z,26.98
2022-08-22T15:31:03.825Z,27.69
2022-08-22T15:36:24.999Z,27.70
2022-08-22T15:41:37.032Z,27.83
2022-08-22T15:46:44.742Z,27.96
2022-08-22T15:52:13.376Z,28.63
2022-08-22T15:57:18.905Z,29.54
2022-08-22T16:03:07.641Z,30.04
2022-08-22T16:08:18.626Z,30.54
2022-08-22T16:13:27.296Z,30.64
2022-08-22T16:18:45.165Z,29.85
2022-08-22T16:23:54.263Z,28.86
2022-08-22T16:29:17.534Z,28.06
2022-08-22T16:34:38.370Z,27.35
2022-08-22T16:40:03.575Z,26.73
2022-08-22T16:45:17.757Z,26.18
2022-08-22T16:50:28.022Z,25.77
2022-08-22T16:55:30.881Z,25.40
2022-08-22T17:00:36.530Z,25.08
2022-08-22T17:06:05.178Z,24.80
2022-08-22T17:11:30.128Z,24.50
2022-08-22T17:16:52.058Z,24.18
2022-08-22T17:22:02.137Z,23.90
2022-08-22T17:27:23.368Z,23.62
2022-08-22T17:33:00.265Z,24.71
2022-08-22T17:38:31.898Z,26.20
2022-08-22T17:43:52.158Z,24.91
2022-08-22T17:49:32.219Z,24.18
2022-08-22T17:55:00.497Z,23.65
2022-08-22T18:00:17.347Z,23.26
2022-08-22T18:05:28.017Z,24.25
2022-08-22T18:10:40.895Z,26.61
2022-08-22T18:16:04.030Z,26.78
2022-08-22T18:21:15.289Z,25.16
2022-08-22T18:26:17.928Z,24.22
2022-08-22T18:31:45.377Z,23.64
2022-08-22T18:37:01.152Z,23.17
2022-08-22T18:42:09.496Z,22.79
2022-08-22T18:47:19.252Z,22.58
2022-08-22T18:52:42.280Z,24.79
2022-08-22T18:57:58.335Z,25.69
2022-08-22T19:03:43.155Z,24.26
2022-08-22T19:08:53.407Z,23.37
2022-08-22T19:14:17.913Z,22.86
2022-08-22T19:19:57.146Z,23.79
2022-08-22T19:25:09.277Z,26.22
2022-08-22T19:30:33.910Z,25.76
2022-08-22T19:35:51.665Z,24.22
2022-08-22T19:40:58.488Z,23.35
2022-08-22T19:46:05.629Z,22.74
2022-08-22T19:51:28.898Z,23.45
2022-08-22T19:56:50.694Z,25.78
2022-08-22T20:01:58.178Z,25.80
2022-08-22T20:07:21.500Z,24.19
2022-08-22T20:12:30.095Z,23.20
2022-08-22T20:17:41.314Z,23.69
2022-08-22T20:22:55.374Z,25.88
2022-08-22T20:28:05.197Z,25.72
2022-08-22T20:33:13.937Z,24.10
2022-08-22T20:38:22.327Z,23.15
2022-08-22T20:43:35.768Z,23.64
2022-08-22T20:48:42.946Z,25.82
2022-08-22T20:53:53.059Z,25.82
2022-08-22T20:59:00.512Z,24.11
2022-08-22T21:04:04.907Z,23.10
2022-08-22T21:09:52.499Z,23.49
2022-08-22T21:14:55.220Z,25.77
2022-08-22T21:19:58.457Z,25.07
2022-08-22T21:25:01.490Z,23.46
2022-08-22T21:30:08.513Z,22.54
2022-08-22T21:35:40.733Z,23.15
2022-08-22T21:40:43.468Z,25.43
2022-08-22T21:45:47.027Z,25.30
2022-08-22T21:50:49.847Z,23.61
2022-08-22T21:56:11.980Z,22.55
2022-08-22T22:01:31.372Z,23.25
2022-08-22T22:06:34.280Z,25.42
2022-08-22T22:11:39.387Z,25.40
2022-08-22T22:16:42.093Z,23.73
2022-08-22T22:21:44.832Z,22.70
2022-08-22T22:26:47.714Z,23.24
2022-08-22T22:31:50.612Z,25.35
2022-08-22T22:36:54.398Z,25.39
2022-08-22T22:41:57.077Z,23.68
2022-08-22T22:47:04.936Z,23.69
2022-08-22T22:52:07.646Z,25.68
2022-08-22T22:57:16.209Z,25.12
2022-08-22T23:02:28.265Z,23.45
2022-08-22T23:07:33.854Z,23.56
2022-08-22T23:12:38.100Z,25.55
2022-08-22T23:17:42.425Z,25.50
2022-08-22T23:22:46.177Z,23.72
2022-08-22T23:27:52.481Z,23.60
2022-08-22T23:32:55.897Z,25.44
2022-08-22T23:37:58.802Z,25.25
2022-08-22T23:43:01.808Z,23.54
2022-08-22T23:48:04.542Z,23.55
2022-08-22T23:53:07.225Z,25.50
2022-08-22T23:58:10.009Z,25.40
